createdAt,value
2019-03-12T00:00:02.908Z,80.64
2019-03-12T00:02:35.070Z,80.60
2019-03-12T00:05:05.510Z,80.40
2019-03-12T00:07:35.688Z,80.52
2019-03-12T00:10:05.957Z,80.66
2019-03-12T00:12:36.232Z,80.55
2019-03-12T00:15:06.577Z,80.78
2019-03-12T00:17:37.018Z,80.75
2019-03-12T00:20:07.344Z,80.74
2019-03-12T00:22:37.657Z,80.51
2019-03-12T00:25:08.037Z,80.41
2019-03-12T00:27:38.284Z,80.33
2019-03-12T00:30:09.076Z,80.24
2019-03-12T00:32:39.398Z,80.15
2019-03-12T00:35:09.572Z,80.10
2019-03-12T00:37:40.094Z,80.02
2019-03-12T00:40:10.342Z,79.90
2019-03-12T00:42:40.958Z,79.89
2019-03-12T00:45:11.288Z,79.99
2019-03-12T00:47:41.687Z,79.70
2019-03-12T00:50:11.919Z,79.87
2019-03-12T00:52:42.199Z,79.84
2019-03-12T00:55:12.525Z,79.72
2019-03-12T00:57:42.578Z,79.54
2019-03-12T01:00:13.637Z,79.71
2019-03-12T01:02:44.234Z,79.66
2019-03-12T01:05:14.706Z,79.55
2019-03-12T01:07:45.341Z,79.61
2019-03-12T01:10:15.868Z,79.55
2019-03-12T01:12:46.200Z,79.56
2019-03-12T01:15:16.456Z,79.57
2019-03-12T01:17:46.819Z,79.61
2019-03-12T01:20:17.103Z,79.65
2019-03-12T01:22:47.364Z,79.54
2019-03-12T01:25:17.486Z,79.56
2019-03-12T01:27:48.171Z,79.58
2019-03-12T01:30:18.374Z,79.51
2019-03-12T01:32:48.679Z,79.62
2019-03-12T01:35:19.355Z,79.66
2019-03-12T01:37:50.333Z,79.81
2019-03-12T01:40:20.799Z,79.88
2019-03-12T01:42:52.447Z,79.76
2019-03-12T01:45:23.352Z,79.76
2019-03-12T01:47:53.892Z,79.80
2019-03-12T01:50:24.522Z,79.96
2019-03-12T01:52:54.804Z,79.88
2019-03-12T01:55:25.306Z,80.03
2019-03-12T01:57:55.582Z,80.06
2019-03-12T02:00:25.848Z,80.06
2019-03-12T02:02:56.319Z,80.02
2019-03-12T02:05:26.943Z,80.12
2019-03-12T02:07:57.910Z,80.29
2019-03-12T02:10:28.108Z,80.28
2019-03-12T02:12:58.338Z,80.34
2019-03-12T02:15:28.842Z,80.10
2019-03-12T02:17:59.447Z,80.32
2019-03-12T02:20:29.798Z,80.16
2019-03-12T02:23:00.080Z,80.16
2019-03-12T02:25:30.481Z,80.49
2019-03-12T02:28:00.667Z,80.54
2019-03-12T02:30:31.043Z,80.45
2019-03-12T02:33:01.442Z,80.57
2019-03-12T02:35:31.623Z,80.47
2019-03-12T02:38:01.890Z,80.48
2019-03-12T02:40:32.544Z,80.52
2019-03-12T02:43:02.859Z,80.38
2019-03-12T02:45:33.188Z,80.56
2019-03-12T02:48:03.510Z,80.74
2019-03-12T02:50:33.636Z,80.75
2019-03-12T02:53:03.968Z,80.62
2019-03-12T02:55:34.756Z,80.46
2019-03-12T02:58:04.941Z,80.43
2019-03-12T03:00:35.217Z,80.21
2019-03-12T03:03:05.286Z,80.38
2019-03-12T03:05:37.249Z,80.27
2019-03-12T03:08:09.380Z,80.20
2019-03-12T03:10:39.795Z,80.05
2019-03-12T03:13:10.400Z,80.12
2019-03-12T03:15:45.800Z,80.18
2019-03-12T03:18:16.448Z,80.26
2019-03-12T03:20:46.759Z,80.22
2019-03-12T03:23:17.331Z,80.13
2019-03-12T03:25:47.566Z,80.11
2019-03-12T03:28:17.986Z,80.08
2019-03-12T03:30:48.116Z,80.26
2019-03-12T03:33:18.401Z,80.28
2019-03-12T03:35:49.121Z,80.41
2019-03-12T03:38:19.523Z,80.54
2019-03-12T03:40:50.324Z,80.52
2019-03-12T03:43:20.721Z,80.51
2019-03-12T03:45:50.879Z,80.23
2019-03-12T03:48:21.166Z,80.18
2019-03-12T03:50:51.439Z,80.09
2019-03-12T03:53:22.150Z,80.12
2019-03-12T03:55:52.444Z,80.08
2019-03-12T03:58:22.769Z,80.02
2019-03-12T04:00:53.064Z,80.09
2019-03-12T04:03:24.473Z,79.93
2019-03-12T04:05:55.115Z,79.92
2019-03-12T04:08:25.329Z,79.89
2019-03-12T04:10:55.523Z,79.87
2019-03-12T04:13:25.724Z,79.89
2019-03-12T04:15:57.374Z,79.87
2019-03-12T04:18:29.230Z,79.66
2019-03-12T04:20:59.408Z,79.80
2019-03-12T04:23:29.738Z,79.81
2019-03-12T04:26:00.012Z,79.92
2019-03-12T04:28:30.384Z,80.13
2019-03-12T04:31:00.606Z,80.08
2019-03-12T04:33:48.339Z,79.96
2019-03-12T04:36:18.724Z,79.91
2019-03-12T04:38:49.053Z,79.85
2019-03-12T04:41:19.359Z,79.85
2019-03-12T04:43:49.641Z,79.95
2019-03-12T04:46:19.847Z,80.07
2019-03-12T04:48:50.007Z,80.14
2019-03-12T04:51:20.188Z,80.13
2019-03-12T04:53:50.460Z,80.07
2019-03-12T04:56:21.034Z,80.09
2019-03-12T04:58:51.419Z,79.96
2019-03-12T05:01:21.499Z,79.67
2019-03-12T05:03:52.406Z,79.52
2019-03-12T05:06:22.923Z,79.49
2019-03-12T05:08:53.004Z,79.33
2019-03-12T05:11:23.264Z,79.18
2019-03-12T05:14:11.169Z,79.05
2019-03-12T05:16:41.372Z,78.84
2019-03-12T05:19:11.965Z,78.50
2019-03-12T05:21:44.899Z,78.24
2019-03-12T05:24:14.698Z,78.24
2019-03-12T05:26:44.879Z,77.78
2019-03-12T05:29:15.044Z,77.45
2019-03-12T05:31:45.311Z,77.01
2019-03-12T05:34:15.443Z,76.83
2019-03-12T05:36:45.649Z,76.68
2019-03-12T05:39:15.739Z,76.36
2019-03-12T05:41:46.099Z,76.24
2019-03-12T05:44:16.633Z,76.14
2019-03-12T05:46:46.845Z,75.86
2019-03-12T05:49:17.139Z,75.47
2019-03-12T05:51:47.323Z,75.40
2019-03-12T05:54:17.766Z,74.63
2019-03-12T05:56:47.836Z,74.30
2019-03-12T05:59:18.195Z,73.23
2019-03-12T06:01:48.288Z,73.03
2019-03-12T06:04:18.790Z,73.16
2019-03-12T06:06:48.984Z,72.66
2019-03-12T06:09:29.693Z,71.94
2019-03-12T06:11:52.440Z,71.12
2019-03-12T06:14:22.723Z,70.44
2019-03-12T06:16:53.637Z,69.67
2019-03-12T06:19:23.850Z,69.49
2019-03-12T06:21:54.091Z,68.81
2019-03-12T06:24:24.333Z,68.11
2019-03-12T06:26:54.496Z,68.05
2019-03-12T06:29:24.757Z,64.82
2019-03-12T06:31:56.616Z,58.22
2019-03-12T06:34:28.635Z,53.67
2019-03-12T06:37:00.673Z,50.61
2019-03-12T06:39:32.549Z,49.05
2019-03-12T06:42:07.561Z,50.42
2019-03-12T06:44:38.089Z,47.54
2019-03-12T06:47:16.149Z,45.68
2019-03-12T06:50:06.550Z,43.36
2019-03-12T06:52:47.842Z,44.11
2019-03-12T06:55:19.784Z,45.12
2019-03-12T06:58:01.337Z,42.89
2019-03-12T07:00:33.212Z,44.79
2019-03-12T07:03:05.254Z,49.59
2019-03-12T07:05:55.340Z,50.34
2019-03-12T07:08:27.139Z,50.98
2019-03-12T07:10:58.980Z,50.84
2019-03-12T07:13:30.696Z,47.45
2019-03-12T07:16:02.529Z,44.18
2019-03-12T07:18:52.404Z,45.20
2019-03-12T07:21:33.421Z,49.37
2019-03-12T07:24:21.920Z,51.57
2019-03-12T07:27:10.267Z,52.15
2019-03-12T07:29:57.406Z,53.13
2019-03-12T07:32:38.531Z,52.33
2019-03-12T07:35:10.625Z,53.35
2019-03-12T07:37:42.694Z,52.66
2019-03-12T07:40:19.932Z,53.84
2019-03-12T07:43:07.725Z,53.35
2019-03-12T07:45:48.952Z,53.18
2019-03-12T07:48:30.000Z,51.72
2019-03-12T07:51:05.084Z,52.25
2019-03-12T07:53:58.625Z,48.49
2019-03-12T07:56:24.944Z,46.34
2019-03-12T07:58:56.853Z,40.63
2019-03-12T08:01:31.383Z,39.12
2019-03-12T08:04:12.315Z,35.91
2019-03-12T08:06:50.253Z,38.21
2019-03-12T08:09:28.556Z,36.96
2019-03-12T08:12:03.294Z,38.26
2019-03-12T08:14:41.382Z,39.35
2019-03-12T08:17:13.097Z,40.43
2019-03-12T08:19:45.366Z,40.16
2019-03-12T08:22:17.572Z,37.75
2019-03-12T08:25:04.654Z,35.55
2019-03-12T08:27:51.582Z,35.28
2019-03-12T08:30:39.820Z,34.06
2019-03-12T08:33:23.770Z,34.10
2019-03-12T08:36:01.884Z,36.36
2019-03-12T08:38:36.489Z,34.69
2019-03-12T08:41:11.434Z,34.63
2019-03-12T08:43:55.306Z,35.53
2019-03-12T08:46:30.421Z,31.74
2019-03-12T08:49:05.414Z,33.26
2019-03-12T08:51:40.230Z,33.68
2019-03-12T08:54:25.480Z,31.20
2019-03-12T08:57:03.337Z,32.56
2019-03-12T08:59:38.118Z,33.94
2019-03-12T09:02:28.100Z,33.42
2019-03-12T09:05:02.651Z,30.26
2019-03-12T09:07:34.629Z,29.45
2019-03-12T09:10:18.732Z,30.28
2019-03-12T09:12:50.659Z,30.64
2019-03-12T09:15:31.702Z,33.46
2019-03-12T09:18:03.547Z,32.62
2019-03-12T09:20:38.721Z,33.99
2019-03-12T09:23:23.288Z,32.94
2019-03-12T09:25:58.102Z,34.56
2019-03-12T09:28:35.582Z,37.03
2019-03-12T09:31:13.161Z,35.84
2019-03-12T09:33:51.914Z,35.46
2019-03-12T09:36:27.379Z,37.00
2019-03-12T09:39:11.512Z,37.46
2019-03-12T09:41:59.863Z,36.44
2019-03-12T09:44:34.558Z,38.50
2019-03-12T09:47:09.691Z,39.33
2019-03-12T09:49:41.699Z,37.48
2019-03-12T09:52:22.710Z,37.96
2019-03-12T09:54:54.705Z,40.94
2019-03-12T09:57:44.481Z,39.05
2019-03-12T10:00:17.244Z,39.52
2019-03-12T10:02:49.409Z,41.03
2019-03-12T10:05:27.495Z,41.21
2019-03-12T10:08:08.279Z,40.42
2019-03-12T10:10:56.567Z,42.01
2019-03-12T10:13:28.597Z,41.53
2019-03-12T10:16:03.532Z,41.52
2019-03-12T10:18:51.907Z,41.66
2019-03-12T10:21:29.997Z,42.67
2019-03-12T10:24:14.171Z,41.99
2019-03-12T10:26:49.925Z,41.80
2019-03-12T10:29:33.855Z,41.54
2019-03-12T10:32:08.838Z,44.18
2019-03-12T10:34:52.805Z,47.07
2019-03-12T10:37:31.025Z,47.25
2019-03-12T10:40:14.770Z,47.23
2019-03-12T10:42:50.750Z,47.84
2019-03-12T10:45:22.779Z,47.33
2019-03-12T10:47:57.688Z,45.90
2019-03-12T10:50:28.122Z,46.20
2019-03-12T10:52:58.489Z,45.70
2019-03-12T10:55:29.023Z,47.31
2019-03-12T10:57:59.177Z,49.13
2019-03-12T11:00:29.833Z,48.21
2019-03-12T11:03:00.090Z,45.59
2019-03-12T11:05:30.237Z,44.25
2019-03-12T11:08:00.987Z,46.34
2019-03-12T11:10:31.558Z,45.31
2019-03-12T11:13:02.245Z,45.15
2019-03-12T11:15:32.766Z,47.96
2019-03-12T11:18:04.159Z,47.94
2019-03-12T11:20:34.605Z,47.97
2019-03-12T11:23:04.886Z,44.87
2019-03-12T11:25:35.537Z,44.87
2019-03-12T11:28:06.017Z,45.86
2019-03-12T11:30:36.596Z,46.80
2019-03-12T11:33:07.058Z,50.05
2019-03-12T11:35:39.594Z,46.50
2019-03-12T11:38:09.848Z,46.67
2019-03-12T11:40:40.397Z,45.96
2019-03-12T11:43:10.856Z,46.58
2019-03-12T11:45:41.131Z,47.72
2019-03-12T11:48:11.861Z,46.94
2019-03-12T11:50:42.219Z,45.18
2019-03-12T11:53:12.628Z,45.73
2019-03-12T11:55:42.977Z,46.01
2019-03-12T11:58:13.582Z,47.37
2019-03-12T12:00:51.266Z,46.38
2019-03-12T12:03:22.508Z,46.08
2019-03-12T12:05:52.930Z,45.39
2019-03-12T12:08:23.260Z,45.78
2019-03-12T12:10:53.584Z,44.33
2019-03-12T12:13:23.934Z,44.94
2019-03-12T12:15:54.181Z,44.17
2019-03-12T12:18:24.314Z,43.95
2019-03-12T12:20:54.569Z,44.64
2019-03-12T12:23:24.868Z,43.62
2019-03-12T12:25:55.085Z,45.63
2019-03-12T12:28:25.571Z,47.74
2019-03-12T12:30:56.097Z,45.60
2019-03-12T12:33:26.157Z,43.57
2019-03-12T12:35:56.441Z,41.69
2019-03-12T12:38:26.584Z,41.64
2019-03-12T12:40:56.681Z,42.81
2019-03-12T12:43:27.210Z,40.37
2019-03-12T12:45:57.531Z,41.67
2019-03-12T12:48:27.905Z,39.41
2019-03-12T12:51:03.495Z,38.40
2019-03-12T12:53:30.144Z,36.64
2019-03-12T12:56:00.594Z,36.59
2019-03-12T12:58:31.206Z,37.39
2019-03-12T13:01:01.817Z,38.83
2019-03-12T13:03:32.041Z,41.84
2019-03-12T13:06:02.313Z,41.95
2019-03-12T13:08:32.502Z,40.86
2019-03-12T13:11:03.882Z,38.90
2019-03-12T13:13:34.231Z,38.88
2019-03-12T13:16:04.438Z,37.72
2019-03-12T13:18:34.978Z,37.75
2019-03-12T13:21:05.253Z,36.44
2019-03-12T13:23:36.285Z,39.01
2019-03-12T13:26:06.548Z,39.84
2019-03-12T13:28:37.059Z,39.54
2019-03-12T13:31:07.379Z,38.18
2019-03-12T13:33:37.799Z,38.03
2019-03-12T13:36:09.862Z,37.57
2019-03-12T13:38:46.580Z,35.65
2019-03-12T13:41:12.977Z,36.85
2019-03-12T13:43:43.426Z,39.11
2019-03-12T13:46:13.773Z,36.38
2019-03-12T13:48:44.359Z,35.85
2019-03-12T13:51:14.723Z,35.64
2019-03-12T13:53:46.349Z,35.20
2019-03-12T13:56:16.880Z,34.02
2019-03-12T13:58:47.660Z,32.95
2019-03-12T14:01:18.122Z,32.46
2019-03-12T14:03:48.477Z,33.22
2019-03-12T14:06:18.795Z,32.15
2019-03-12T14:08:48.978Z,34.49
2019-03-12T14:11:19.190Z,34.49
2019-03-12T14:13:49.715Z,34.81
2019-03-12T14:16:20.251Z,35.74
2019-03-12T14:18:50.476Z,36.95
2019-03-12T14:21:20.923Z,37.11
2019-03-12T14:23:56.282Z,37.39
2019-03-12T14:26:27.737Z,41.17
2019-03-12T14:28:58.200Z,43.06
2019-03-12T14:31:28.442Z,43.63
2019-03-12T14:33:58.785Z,43.51
2019-03-12T14:36:28.946Z,43.94
2019-03-12T14:38:59.110Z,45.22
2019-03-12T14:41:29.628Z,45.68
2019-03-12T14:43:59.808Z,47.42
2019-03-12T14:46:30.127Z,47.79
2019-03-12T14:49:04.480Z,48.40
2019-03-12T14:51:53.713Z,49.16
2019-03-12T14:54:23.989Z,47.87
2019-03-12T14:56:54.186Z,48.37
2019-03-12T14:59:24.629Z,48.74
2019-03-12T15:01:54.908Z,48.49
2019-03-12T15:04:25.214Z,47.77
2019-03-12T15:06:55.548Z,47.30
2019-03-12T15:09:25.935Z,48.38
2019-03-12T15:11:56.181Z,48.67
2019-03-12T15:14:26.428Z,48.30
2019-03-12T15:16:57.780Z,49.35
2019-03-12T15:19:28.089Z,49.68
2019-03-12T15:21:58.426Z,49.28
2019-03-12T15:24:28.941Z,50.26
2019-03-12T15:26:59.066Z,50.01
2019-03-12T15:29:29.581Z,50.16
2019-03-12T15:32:04.510Z,50.82
2019-03-12T15:34:31.906Z,50.73
2019-03-12T15:37:02.115Z,50.53
2019-03-12T15:39:32.419Z,50.75
2019-03-12T15:42:02.663Z,50.51
2019-03-12T15:44:33.359Z,50.94
2019-03-12T15:47:03.732Z,51.85
2019-03-12T15:49:34.060Z,51.72
2019-03-12T15:52:04.428Z,51.26
2019-03-12T15:54:34.644Z,52.45
2019-03-12T15:57:04.673Z,52.95
2019-03-12T15:59:35.805Z,52.64
2019-03-12T16:02:06.153Z,52.86
2019-03-12T16:04:36.607Z,53.66
2019-03-12T16:07:07.038Z,54.05
2019-03-12T16:09:37.316Z,54.48
2019-03-12T16:12:10.083Z,54.65
2019-03-12T16:14:42.151Z,54.68
2019-03-12T16:17:12.271Z,55.60
2019-03-12T16:19:42.434Z,54.91
2019-03-12T16:22:12.547Z,55.16
2019-03-12T16:24:42.788Z,55.80
2019-03-12T16:27:12.977Z,56.16
2019-03-12T16:29:43.648Z,56.08
2019-03-12T16:32:14.076Z,55.50
2019-03-12T16:34:44.658Z,56.46
2019-03-12T16:37:20.920Z,56.04
2019-03-12T16:39:51.233Z,55.71
2019-03-12T16:42:21.354Z,55.66
2019-03-12T16:44:51.637Z,56.08
2019-03-12T16:47:21.835Z,55.41
2019-03-12T16:49:52.067Z,55.71
2019-03-12T16:52:22.291Z,55.63
2019-03-12T16:54:52.440Z,55.41
2019-03-12T16:57:22.596Z,55.66
2019-03-12T16:59:52.865Z,55.55
2019-03-12T17:02:23.309Z,56.08
2019-03-12T17:05:32.771Z,56.16
2019-03-12T17:08:04.422Z,56.66
2019-03-12T17:10:36.263Z,57.16
2019-03-12T17:13:07.875Z,57.30
2019-03-12T17:15:39.595Z,57.54
2019-03-12T17:18:11.592Z,57.23
2019-03-12T17:20:43.359Z,58.17
2019-03-12T17:23:15.207Z,58.20
2019-03-12T17:25:47.026Z,58.34
2019-03-12T17:28:19.478Z,58.70
2019-03-12T17:30:51.330Z,59.51
2019-03-12T17:33:23.046Z,60.10
2019-03-12T17:35:55.134Z,60.67
2019-03-12T17:38:26.952Z,60.88
2019-03-12T17:40:58.898Z,61.31
2019-03-12T17:43:30.707Z,61.76
2019-03-12T17:46:02.325Z,62.04
2019-03-12T17:48:33.941Z,62.13
2019-03-12T17:51:06.096Z,62.39
2019-03-12T17:53:37.445Z,62.80
2019-03-12T17:56:09.262Z,63.07
2019-03-12T17:58:41.416Z,63.50
2019-03-12T18:01:13.297Z,63.81
2019-03-12T18:03:46.426Z,64.00
2019-03-12T18:06:18.245Z,63.74
2019-03-12T18:08:49.800Z,63.84
2019-03-12T18:11:21.611Z,64.46
2019-03-12T18:13:53.989Z,64.94
2019-03-12T18:16:25.727Z,65.13
2019-03-12T18:18:57.673Z,65.39
2019-03-12T18:21:29.438Z,65.48
2019-03-12T18:24:01.222Z,65.58
2019-03-12T18:26:32.843Z,65.72
2019-03-12T18:29:04.425Z,66.02
2019-03-12T18:31:36.032Z,66.38
2019-03-12T18:34:07.732Z,66.30
2019-03-12T18:36:39.665Z,66.54
2019-03-12T18:39:11.445Z,66.45
2019-03-12T18:41:44.973Z,66.52
2019-03-12T18:44:16.637Z,66.54
2019-03-12T18:46:48.330Z,66.50
2019-03-12T18:49:19.884Z,66.78
2019-03-12T18:51:51.740Z,66.93
2019-03-12T18:54:23.505Z,67.05
2019-03-12T18:56:55.413Z,67.00
2019-03-12T18:59:27.123Z,67.19
2019-03-12T19:01:58.729Z,67.18
2019-03-12T19:04:30.607Z,67.16
2019-03-12T19:07:02.620Z,67.33
2019-03-12T19:09:34.274Z,67.49
2019-03-12T19:12:06.191Z,67.09
2019-03-12T19:14:37.638Z,67.70
2019-03-12T19:17:09.298Z,67.72
2019-03-12T19:19:41.032Z,67.84
2019-03-12T19:22:12.950Z,67.99
2019-03-12T19:24:44.773Z,68.07
2019-03-12T19:27:16.475Z,68.18
2019-03-12T19:29:49.087Z,68.67
2019-03-12T19:32:25.368Z,69.18
2019-03-12T19:34:56.922Z,69.26
2019-03-12T19:37:28.659Z,69.37
2019-03-12T19:40:00.415Z,69.55
2019-03-12T19:42:32.199Z,69.79
2019-03-12T19:45:03.911Z,70.24
2019-03-12T19:47:35.700Z,70.62
2019-03-12T19:50:09.203Z,71.01
2019-03-12T19:52:40.940Z,70.99
2019-03-12T19:55:14.821Z,71.22
2019-03-12T19:57:46.375Z,71.57
2019-03-12T20:00:19.512Z,71.58
2019-03-12T20:02:51.891Z,72.15
2019-03-12T20:05:23.609Z,72.18
2019-03-12T20:07:55.201Z,72.11
2019-03-12T20:11:03.349Z,72.36
2019-03-12T20:14:10.582Z,72.72
2019-03-12T20:17:17.791Z,72.94
2019-03-12T20:20:32.016Z,73.20
2019-03-12T20:24:08.584Z,73.55
2019-03-12T20:27:20.265Z,73.41
2019-03-12T20:30:29.057Z,73.67
2019-03-12T20:33:41.834Z,73.76
2019-03-12T20:36:54.985Z,73.73
2019-03-12T20:40:08.973Z,74.32
2019-03-12T20:43:29.887Z,74.47
2019-03-12T20:46:46.820Z,74.55
2019-03-12T20:50:02.558Z,74.76
2019-03-12T20:53:08.688Z,75.07
2019-03-12T20:56:22.785Z,75.14
2019-03-12T20:59:49.183Z,74.99
2019-03-12T21:03:05.143Z,75.10
2019-03-12T21:06:21.806Z,74.83
2019-03-12T21:09:35.901Z,75.37
2019-03-12T21:12:46.101Z,75.87
2019-03-12T21:16:04.541Z,75.66
2019-03-12T21:19:31.861Z,75.83
2019-03-12T21:22:38.771Z,76.17
2019-03-12T21:25:38.692Z,76.31
2019-03-12T21:28:46.278Z,76.24
2019-03-12T21:31:18.006Z,76.58
2019-03-12T21:33:49.928Z,76.42
2019-03-12T21:36:21.727Z,76.77
2019-03-12T21:38:53.570Z,76.87
2019-03-12T21:41:25.288Z,76.94
2019-03-12T21:43:56.919Z,76.70
2019-03-12T21:46:29.848Z,76.75
2019-03-12T21:49:01.125Z,76.75
2019-03-12T21:51:32.796Z,76.95
2019-03-12T21:54:04.666Z,76.56
2019-03-12T21:56:36.398Z,76.55
2019-03-12T21:59:08.052Z,76.50
2019-03-12T22:01:39.664Z,76.61
2019-03-12T22:04:11.223Z,76.31
2019-03-12T22:06:43.011Z,76.86
2019-03-12T22:09:14.473Z,76.44
2019-03-12T22:11:46.632Z,76.42
2019-03-12T22:14:18.126Z,76.55
2019-03-12T22:16:52.577Z,76.34
2019-03-12T22:19:25.333Z,76.23
2019-03-12T22:22:01.524Z,75.90
2019-03-12T22:24:33.366Z,75.76
2019-03-12T22:27:05.266Z,75.38
2019-03-12T22:29:37.988Z,75.90
2019-03-12T22:32:10.984Z,75.50
2019-03-12T22:34:42.624Z,75.22
2019-03-12T22:37:14.290Z,75.50
2019-03-12T22:39:46.121Z,75.50
2019-03-12T22:42:17.733Z,75.50
2019-03-12T22:44:49.554Z,75.04
2019-03-12T22:47:21.280Z,75.06
2019-03-12T22:49:52.721Z,75.01
2019-03-12T22:52:24.484Z,74.98
2019-03-12T22:54:56.041Z,74.72
2019-03-12T22:57:28.727Z,74.92
2019-03-12T23:00:18.541Z,74.51
2019-03-12T23:03:08.035Z,74.55
2019-03-12T23:05:57.545Z,74.22
2019-03-12T23:08:47.133Z,73.84
2019-03-12T23:11:20.367Z,74.02
2019-03-12T23:13:52.324Z,74.01
2019-03-12T23:16:24.599Z,73.12
2019-03-12T23:18:57.831Z,73.07
2019-03-12T23:21:29.519Z,73.45
2019-03-12T23:24:01.816Z,73.17
2019-03-12T23:26:33.830Z,72.93
2019-03-12T23:29:05.615Z,72.87
2019-03-12T23:31:37.657Z,72.45
2019-03-12T23:34:09.375Z,72.23
2019-03-12T23:36:41.145Z,71.92
2019-03-12T23:39:12.807Z,71.95
2019-03-12T23:41:44.643Z,71.99
2019-03-12T23:44:16.444Z,71.29
2019-03-12T23:46:48.191Z,70.87
2019-03-12T23:49:20.090Z,70.60
2019-03-12T23:51:51.939Z,70.61
2019-03-12T23:54:23.843Z,70.43
2019-03-12T23:56:55.816Z,70.12
2019-03-12T23:59:27.725Z,70.24
